Time;durP1;ratioP1;P1;durP2;ratioP2;P2;SDS_P1;SDS_P2;PMS_P1;PMS_P2;Temp;Humidity;BMP_temperature;BMP_pressure;BME280_temperature;BME280_humidity;BME280_pressure;Samples;Min_cycle;Max_cycle;Signal;HPM_P1;HPM_P2
2021/12/21 00:01:04;;;;;;;0.50;0.50;;;2.30;99.90;;;;;;5074810;28;20951;-69
2021/12/21 00:03:51;;;;;;;0.40;0.40;;;2.20;99.90;;;;;;5095105;28;20419;-70
2021/12/21 00:06:38;;;;;;;0.40;0.40;;;2.20;99.90;;;;;;5095842;28;20420;-71
2021/12/21 00:09:25;;;;;;;0.40;0.40;;;2.30;99.90;;;;;;5094017;28;20431;-71
2021/12/21 00:12:15;;;;;;;0.50;0.50;;;2.10;99.90;;;;;;5093505;28;20426;-69
2021/12/21 00:15:05;;;;;;;0.50;0.50;;;2.10;99.90;;;;;;5085007;28;20431;-69
2021/12/21 00:18:02;;;;;;;0.40;0.40;;;2.10;99.90;;;;;;5075764;28;20936;-69
2021/12/21 00:20:57;;;;;;;0.40;0.40;;;2.00;99.90;;;;;;5074372;28;20439;-70
2021/12/21 00:23:47;;;;;;;0.40;0.40;;;2.20;99.90;;;;;;5074257;28;20425;-69
2021/12/21 00:26:33;;;;;;;0.50;0.50;;;2.20;99.90;;;;;;5074280;28;20787;-70
2021/12/21 00:29:21;;;;;;;0.40;0.40;;;2.30;99.90;;;;;;5074054;28;20448;-69
2021/12/21 00:32:09;;;;;;;0.50;0.50;;;2.30;99.90;;;;;;5074301;28;20568;-70
2021/12/21 00:34:57;;;;;;;0.60;0.60;;;2.30;99.90;;;;;;5075469;28;20807;-69
2021/12/21 00:37:46;;;;;;;0.40;0.40;;;2.20;99.90;;;;;;5090945;28;20460;-69
2021/12/21 00:40:33;;;;;;;0.40;0.40;;;2.10;99.90;;;;;;5094897;28;20450;-68
2021/12/21 00:43:20;;;;;;;0.40;0.40;;;2.10;99.90;;;;;;5093758;28;20419;-70
2021/12/21 00:46:07;;;;;;;3.07;2.80;;;2.10;99.90;;;;;;5094847;28;20415;-69
2021/12/21 00:49:00;;;;;;;0.50;0.50;;;2.20;99.90;;;;;;5094217;28;20441;-68
2021/12/21 00:51:49;;;;;;;0.83;0.83;;;2.30;99.90;;;;;;5094690;28;20957;-69
2021/12/21 00:54:36;;;;;;;1.13;1.13;;;2.30;99.90;;;;;;5094435;28;20434;-69
2021/12/21 00:57:23;;;;;;;0.40;0.40;;;2.20;99.90;;;;;;5094739;28;20445;-69
2021/12/21 01:00:12;;;;;;;0.50;0.50;;;2.10;99.90;;;;;;5095267;28;20909;-69
2021/12/21 01:03:05;;;;;;;0.60;0.60;;;2.10;99.90;;;;;;5095748;28;20446;-70
2021/12/21 01:05:58;;;;;;;0.40;0.40;;;2.00;99.90;;;;;;5112454;28;20431;-71
2021/12/21 01:08:59;;;;;;;0.40;0.40;;;2.00;99.90;;;;;;5115863;28;20493;-69
2021/12/21 01:11:51;;;;;;;0.40;0.40;;;2.00;99.90;;;;;;5116075;28;20430;-69
2021/12/21 01:15:00;;;;;;;0.40;0.40;;;1.90;99.90;;;;;;5116700;28;20986;-71
2021/12/21 01:17:52;;;;;;;0.40;0.40;;;2.00;99.90;;;;;;5115481;28;20766;-70
2021/12/21 01:20:44;;;;;;;0.40;0.40;;;2.10;99.90;;;;;;5115634;28;20506;-70
2021/12/21 01:23:55;;;;;;;0.50;0.50;;;2.00;99.90;;;;;;5114858;28;20418;-69
2021/12/21 01:26:56;;;;;;;0.40;0.40;;;2.00;99.90;;;;;;5116461;28;20434;-71
2021/12/21 01:29:52;;;;;;;0.40;0.40;;;2.00;99.90;;;;;;5115152;28;20463;-71
2021/12/21 01:32:56;;;;;;;0.40;0.40;;;2.00;99.90;;;;;;5116339;28;20431;-70
2021/12/21 01:35:47;;;;;;;0.40;0.40;;;2.00;99.90;;;;;;5116312;28;20427;-71
2021/12/21 01:38:41;;;;;;;0.50;0.50;;;2.00;99.90;;;;;;5074575;28;20482;-71
2021/12/21 01:41:34;;;;;;;0.40;0.40;;;2.10;99.90;;;;;;5073746;28;20427;-70
2021/12/21 01:44:42;;;;;;;0.50;0.50;;;2.20;99.90;;;;;;5073867;28;20427;-69
2021/12/21 01:50:33;;;;;;;0.50;0.50;;;2.30;99.90;;;;;;5072906;28;20440;-69
2021/12/21 01:53:20;;;;;;;0.50;0.50;;;2.20;99.90;;;;;;5073500;28;20804;-70
2021/12/21 01:56:09;;;;;;;0.40;0.40;;;2.20;99.90;;;;;;5072857;28;20447;-69
2021/12/21 01:58:57;;;;;;;0.40;0.40;;;2.10;99.90;;;;;;5072342;28;20861;-68
2021/12/21 02:01:45;;;;;;;0.40;0.40;;;2.10;99.90;;;;;;5073066;28;20476;-68
2021/12/21 02:04:32;;;;;;;0.50;0.50;;;2.10;99.90;;;;;;5072623;28;20429;-68
2021/12/21 02:07:19;;;;;;;0.40;0.40;;;2.10;99.90;;;;;;5073064;28;20800;-69
2021/12/21 02:10:07;;;;;;;0.50;0.50;;;2.10;99.90;;;;;;5072569;28;20443;-69
2021/12/21 02:12:54;;;;;;;0.40;0.40;;;2.10;99.90;;;;;;5093205;28;20426;-68
2021/12/21 02:15:41;;;;;;;0.50;0.50;;;2.10;99.90;;;;;;5092957;28;20845;-68
2021/12/21 02:18:37;;;;;;;0.40;0.40;;;2.10;99.90;;;;;;5092936;28;20772;-68
2021/12/21 02:21:31;;;;;;;0.40;0.40;;;2.20;99.90;;;;;;5090304;28;20781;-69
2021/12/21 02:24:22;;;;;;;0.40;0.40;;;2.20;99.90;;;;;;5093681;28;20778;-69
2021/12/21 02:27:25;;;;;;;0.60;0.60;;;2.30;99.90;;;;;;5093494;28;20426;-69
2021/12/21 02:30:14;;;;;;;0.87;0.87;;;2.20;99.90;;;;;;5093424;28;20452;-69
2021/12/21 02:33:01;;;;;;;0.40;0.40;;;2.20;99.90;;;;;;5093873;28;20429;-69
2021/12/21 02:35:48;;;;;;;0.40;0.40;;;2.20;99.90;;;;;;5093748;28;20471;-70
2021/12/21 02:38:36;;;;;;;0.50;0.50;;;2.20;99.90;;;;;;5074437;28;20481;-69
2021/12/21 02:41:24;;;;;;;0.40;0.40;;;2.20;99.90;;;;;;5074600;28;20423;-68
2021/12/21 02:44:12;;;;;;;3.70;2.10;;;2.20;99.90;;;;;;5073450;28;20424;-68
2021/12/21 02:46:59;;;;;;;2.40;0.97;;;2.10;99.90;;;;;;5075466;28;20839;-69
2021/12/21 02:49:46;;;;;;;0.40;0.40;;;2.10;99.90;;;;;;5073011;28;20560;-69
2021/12/21 02:52:33;;;;;;;0.40;0.40;;;2.10;99.90;;;;;;5072915;28;20932;-69
2021/12/21 02:55:22;;;;;;;0.40;0.40;;;2.10;99.90;;;;;;5073342;28;20431;-69
2021/12/21 02:58:09;;;;;;;0.50;0.50;;;2.10;99.90;;;;;;5090703;28;20428;-70
2021/12/21 03:00:56;;;;;;;0.47;0.47;;;2.10;99.90;;;;;;5085996;28;20488;-70
2021/12/21 03:03:43;;;;;;;1.03;1.03;;;2.10;99.90;;;;;;5088555;28;20439;-69
2021/12/21 03:09:42;;;;;;;0.40;0.40;;;1.90;99.90;;;;;;5093642;28;20424;-71
2021/12/21 03:13:52;;;;;;;0.50;0.50;;;1.90;99.90;;;;;;5089398;28;20423;-69
2021/12/21 03:15:40;;;;;;;0.50;0.50;;;1.90;99.90;;;;;;5087659;28;20438;-69
2021/12/21 03:18:27;;;;;;;0.40;0.40;;;1.90;99.90;;;;;;5088345;28;20430;-71
2021/12/21 03:21:15;;;;;;;0.40;0.40;;;1.90;99.90;;;;;;5079124;28;20472;-69
2021/12/21 03:24:01;;;;;;;0.50;0.50;;;1.90;99.90;;;;;;5077232;28;20415;-71
2021/12/21 03:26:50;;;;;;;0.60;0.60;;;1.90;99.90;;;;;;5076955;28;20451;-68
2021/12/21 03:29:38;;;;;;;0.57;0.57;;;1.90;99.90;;;;;;5075981;28;20439;-68
2021/12/21 03:32:25;;;;;;;1.93;1.83;;;1.80;99.90;;;;;;5076494;28;20778;-69
2021/12/21 03:35:12;;;;;;;0.50;0.50;;;1.70;99.90;;;;;;5077254;28;20439;-70
2021/12/21 03:37:59;;;;;;;1.07;0.93;;;1.70;99.90;;;;;;5077314;28;20427;-69
2021/12/21 03:40:46;;;;;;;0.50;0.50;;;1.60;99.90;;;;;;5075375;28;20468;-68
2021/12/21 03:43:33;;;;;;;1.03;1.03;;;1.60;99.90;;;;;;5075575;28;20431;-69
2021/12/21 03:46:24;;;;;;;0.40;0.40;;;1.60;99.90;;;;;;5075450;28;20431;-69
2021/12/21 03:49:39;;;;;;;0.50;0.50;;;1.50;99.90;;;;;;5074826;28;20446;-68
2021/12/21 03:52:19;;;;;;;0.40;0.40;;;1.50;99.90;;;;;;5075113;28;20930;-69
2021/12/21 03:55:07;;;;;;;18.13;1.10;;;1.60;99.90;;;;;;5075200;28;20427;-71
2021/12/21 03:57:54;;;;;;;2.83;1.10;;;1.70;99.90;;;;;;5074306;28;20422;-69
2021/12/21 04:00:41;;;;;;;1.60;1.60;;;1.60;99.90;;;;;;5074669;28;20520;-69
2021/12/21 04:03:29;;;;;;;0.43;0.43;;;1.70;99.90;;;;;;5074967;28;20480;-69
2021/12/21 04:06:16;;;;;;;0.40;0.40;;;1.70;99.90;;;;;;5074802;28;20496;-69
2021/12/21 04:09:04;;;;;;;0.40;0.40;;;1.70;99.90;;;;;;5075034;28;20455;-68
2021/12/21 04:11:51;;;;;;;0.53;0.53;;;1.70;99.90;;;;;;5074437;28;20456;-71
2021/12/21 04:14:39;;;;;;;1.60;1.50;;;1.70;99.90;;;;;;5074391;28;20427;-68
2021/12/21 04:17:26;;;;;;;0.80;0.80;;;1.70;99.90;;;;;;5074560;28;20509;-69
2021/12/21 04:20:14;;;;;;;0.50;0.50;;;1.70;99.90;;;;;;5074099;28;21014;-69
2021/12/21 04:23:01;;;;;;;0.40;0.40;;;1.70;99.90;;;;;;5076801;28;20424;-69
2021/12/21 04:25:48;;;;;;;0.50;0.50;;;1.60;99.90;;;;;;5076473;28;20503;-69
2021/12/21 04:28:35;;;;;;;0.50;0.50;;;1.50;99.90;;;;;;5075486;28;20424;-69
2021/12/21 04:31:22;;;;;;;2.10;2.00;;;1.60;99.90;;;;;;5075287;28;20465;-69
2021/12/21 04:34:09;;;;;;;0.40;0.40;;;1.50;99.90;;;;;;5074238;28;20428;-69
2021/12/21 04:36:57;;;;;;;0.50;0.50;;;1.60;99.90;;;;;;5074987;28;20451;-70
2021/12/21 04:39:50;;;;;;;0.40;0.40;;;1.50;99.90;;;;;;5074243;28;20458;-69
2021/12/21 04:42:37;;;;;;;1.03;0.97;;;1.50;99.90;;;;;;5074651;28;20445;-68
2021/12/21 04:45:23;;;;;;;1.53;0.60;;;1.40;99.90;;;;;;5074553;28;20424;-69
2021/12/21 04:48:10;;;;;;;0.70;0.67;;;1.40;99.90;;;;;;5074439;28;20419;-69
2021/12/21 04:50:57;;;;;;;0.60;0.60;;;1.30;99.90;;;;;;5074169;28;20485;-68
2021/12/21 04:53:46;;;;;;;0.40;0.40;;;1.40;99.90;;;;;;5074252;28;20485;-68
2021/12/21 04:56:33;;;;;;;0.50;0.50;;;1.50;99.90;;;;;;5074395;28;20451;-70
2021/12/21 04:59:20;;;;;;;0.47;0.47;;;1.60;99.90;;;;;;5074610;28;20463;-69
2021/12/21 05:02:07;;;;;;;0.60;0.60;;;1.60;99.90;;;;;;5073901;28;20804;-68
2021/12/21 05:04:54;;;;;;;0.40;0.40;;;1.60;99.90;;;;;;5074630;28;20419;-69
2021/12/21 05:07:46;;;;;;;1.47;1.30;;;1.50;99.90;;;;;;5074802;28;20412;-71
2021/12/21 05:10:37;;;;;;;0.40;0.40;;;1.50;99.90;;;;;;5074625;28;20462;-70
2021/12/21 05:13:26;;;;;;;0.73;0.73;;;1.50;99.90;;;;;;5074283;28;20991;-69
2021/12/21 05:16:13;;;;;;;1.17;1.17;;;1.30;99.90;;;;;;5073850;28;20999;-68
2021/12/21 05:19:00;;;;;;;0.80;0.80;;;1.30;99.90;;;;;;5073682;28;20484;-68
2021/12/21 05:21:47;;;;;;;1.37;1.20;;;1.30;99.90;;;;;;5073764;28;20423;-69
2021/12/21 05:24:34;;;;;;;1.30;1.10;;;1.40;99.90;;;;;;5074430;28;20470;-69
2021/12/21 05:27:23;;;;;;;0.40;0.40;;;1.30;99.90;;;;;;5073800;28;20955;-68
2021/12/21 05:30:10;;;;;;;2.67;1.50;;;1.30;99.90;;;;;;5073207;28;20447;-71
2021/12/21 05:32:57;;;;;;;0.40;0.40;;;1.20;99.90;;;;;;5074988;28;20419;-69
2021/12/21 05:35:44;;;;;;;1.07;1.07;;;1.40;99.90;;;;;;5076540;28;20493;-68
2021/12/21 05:38:34;;;;;;;0.47;0.47;;;;;;;;;;5072987;28;20408;-70
2021/12/21 05:41:27;;;;;;;1.00;1.00;;;1.20;99.90;;;;;;5072553;28;20855;-68
2021/12/21 05:44:16;;;;;;;5.40;2.97;;;1.20;99.90;;;;;;5073884;28;20428;-68
2021/12/21 05:47:03;;;;;;;0.97;0.97;;;1.10;99.90;;;;;;5089129;28;20427;-70
2021/12/21 05:49:50;;;;;;;0.50;0.50;;;1.00;99.90;;;;;;5089205;28;20447;-70
2021/12/21 05:52:37;;;;;;;0.60;0.60;;;1.00;99.90;;;;;;5076163;28;20928;-68
2021/12/21 05:55:24;;;;;;;0.83;0.83;;;1.10;99.90;;;;;;5073884;28;20419;-68
2021/12/21 05:58:11;;;;;;;2.77;1.50;;;1.10;99.90;;;;;;5072827;28;20427;-68
2021/12/21 06:01:00;;;;;;;0.63;0.60;;;1.20;99.90;;;;;;5072760;28;20863;-68
2021/12/21 06:03:47;;;;;;;0.50;0.50;;;1.20;99.90;;;;;;5072878;28;20431;-69
2021/12/21 06:06:35;;;;;;;0.50;0.50;;;1.20;99.90;;;;;;5073121;28;20952;-69
2021/12/21 06:09:22;;;;;;;0.40;0.40;;;1.20;99.90;;;;;;5072599;28;20875;-68
2021/12/21 06:12:12;;;;;;;3.57;3.27;;;1.30;99.90;;;;;;5078147;28;20420;-69
2021/12/21 06:27:11;;;;;;;0.50;0.50;;;1.40;99.90;;;;;;5136402;27;20602;-70
2021/12/21 06:29:58;;;;;;;0.50;0.50;;;1.40;99.90;;;;;;5132287;28;20459;-69
2021/12/21 06:32:46;;;;;;;0.50;0.50;;;1.40;99.90;;;;;;5132384;27;20418;-69
2021/12/21 06:35:33;;;;;;;0.43;0.43;;;1.40;99.90;;;;;;5132896;28;20417;-70
2021/12/21 06:38:20;;;;;;;0.40;0.40;;;1.40;99.90;;;;;;5111940;28;20418;-69
2021/12/21 06:41:07;;;;;;;0.40;0.40;;;1.40;99.90;;;;;;5111071;28;20464;-70
2021/12/21 06:43:56;;;;;;;0.93;0.93;;;1.50;99.90;;;;;;5110769;28;20419;-69
2021/12/21 06:46:53;;;;;;;0.50;0.50;;;1.50;99.90;;;;;;5111290;28;20492;-70
2021/12/21 06:52:45;;;;;;;1.10;1.10;;;1.50;99.90;;;;;;5111297;28;20425;-69
2021/12/21 06:55:32;;;;;;;0.40;0.40;;;1.40;99.90;;;;;;5112595;28;20452;-72
2021/12/21 06:58:20;;;;;;;0.40;0.40;;;1.50;99.90;;;;;;5128088;28;20529;-70
2021/12/21 07:01:08;;;;;;;0.40;0.40;;;1.70;99.90;;;;;;5116972;28;20495;-70
2021/12/21 07:03:56;;;;;;;0.50;0.50;;;1.60;99.90;;;;;;5132703;28;20470;-70
2021/12/21 07:06:45;;;;;;;5.83;3.30;;;1.60;99.90;;;;;;5132384;28;20501;-71
2021/12/21 07:09:37;;;;;;;0.50;0.50;;;1.60;99.90;;;;;;5131712;28;20955;-70
2021/12/21 07:17:48;;;;;;;0.50;0.50;;;1.60;99.90;;;;;;5133303;27;20440;-70
2021/12/21 07:18:40;;;;;;;0.40;0.40;;;1.50;99.90;;;;;;5135330;27;20500;-70
2021/12/21 07:21:27;;;;;;;1.70;1.70;;;1.40;99.90;;;;;;5134965;28;20443;-70
2021/12/21 07:24:13;;;;;;;0.50;0.50;;;1.50;99.90;;;;;;5135254;28;20416;-69
2021/12/21 07:27:00;;;;;;;0.50;0.50;;;1.40;99.90;;;;;;5134372;28;20468;-71
2021/12/21 07:29:48;;;;;;;0.80;0.80;;;1.40;99.90;;;;;;5132694;28;20445;-70
2021/12/21 07:32:35;;;;;;;1.00;1.00;;;1.40;99.90;;;;;;5132609;28;20425;-70
2021/12/21 07:35:23;;;;;;;2.10;1.13;;;1.50;99.90;;;;;;5132003;28;20417;-70
2021/12/21 07:38:11;;;;;;;0.50;0.50;;;1.60;99.90;;;;;;5120715;28;20437;-70
2021/12/21 07:40:58;;;;;;;0.40;0.40;;;1.50;99.90;;;;;;5117974;28;20459;-70
2021/12/21 07:43:45;;;;;;;0.43;0.43;;;1.50;99.90;;;;;;5117604;28;20486;-72
2021/12/21 07:46:32;;;;;;;0.50;0.50;;;1.60;99.90;;;;;;5117272;28;20854;-71
2021/12/21 07:49:19;;;;;;;2.00;1.90;;;1.50;99.90;;;;;;5117104;28;20442;-70
2021/12/21 07:52:10;;;;;;;0.60;0.60;;;1.60;99.90;;;;;;5118604;28;20429;-70
2021/12/21 07:54:57;;;;;;;0.50;0.50;;;1.50;99.90;;;;;;5117056;28;20747;-70
2021/12/21 07:57:44;;;;;;;2.60;1.03;;;1.50;99.90;;;;;;5126632;28;20450;-70
2021/12/21 08:00:31;;;;;;;0.40;0.40;;;1.60;99.90;;;;;;5126878;28;20525;-70
2021/12/21 08:03:18;;;;;;;0.40;0.40;;;1.50;99.90;;;;;;5130809;28;20421;-70
2021/12/21 08:06:08;;;;;;;0.50;0.50;;;1.50;99.90;;;;;;5126095;28;20460;-71
2021/12/21 08:08:56;;;;;;;0.50;0.50;;;1.60;99.90;;;;;;5129099;28;20446;-71
2021/12/21 08:14:53;;;;;;;0.50;0.50;;;1.80;99.90;;;;;;5118123;28;20793;-71
2021/12/21 08:17:40;;;;;;;2.60;2.50;;;1.90;99.90;;;;;;5124858;28;20426;-69
2021/12/21 08:20:27;;;;;;;1.00;1.00;;;2.00;99.90;;;;;;5122143;28;20881;-70
2021/12/21 08:23:14;;;;;;;11.77;11.00;;;2.00;99.90;;;;;;5117607;28;20567;-70
2021/12/21 08:26:04;;;;;;;0.60;0.60;;;2.00;99.90;;;;;;5119456;28;20472;-70
2021/12/21 08:28:51;;;;;;;0.50;0.50;;;1.90;99.90;;;;;;5115939;28;20434;-70
2021/12/21 08:31:37;;;;;;;0.43;0.43;;;1.90;99.90;;;;;;5115747;28;20422;-70
2021/12/21 08:34:24;;;;;;;0.50;0.50;;;1.90;99.90;;;;;;5114617;28;20503;-70
2021/12/21 08:37:11;;;;;;;1.07;1.07;;;1.90;99.90;;;;;;5116386;28;20430;-69
2021/12/21 08:39:58;;;;;;;0.50;0.50;;;2.00;99.90;;;;;;5116147;28;20446;-72
2021/12/21 08:42:49;;;;;;;0.50;0.50;;;2.00;99.90;;;;;;5115633;28;20559;-70
2021/12/21 08:45:37;;;;;;;0.43;0.43;;;2.00;99.90;;;;;;5115723;28;20502;-70
2021/12/21 08:48:26;;;;;;;0.50;0.50;;;2.10;99.90;;;;;;5114824;28;20449;-70
2021/12/21 08:51:13;;;;;;;0.47;0.47;;;2.20;99.90;;;;;;5115812;28;20528;-69
2021/12/21 08:54:00;;;;;;;1.07;0.87;;;2.30;99.90;;;;;;5116249;28;20429;-70
2021/12/21 08:56:48;;;;;;;0.50;0.50;;;2.30;99.90;;;;;;5115504;28;20414;-70
2021/12/21 08:59:36;;;;;;;0.80;0.80;;;2.30;99.90;;;;;;5115891;28;20453;-70
2021/12/21 09:02:23;;;;;;;0.50;0.50;;;2.30;99.90;;;;;;5120173;28;20422;-70
2021/12/21 09:05:15;;;;;;;0.60;0.60;;;2.20;99.90;;;;;;5118573;28;20533;-70
2021/12/21 09:08:03;;;;;;;5.40;1.00;;;2.20;99.90;;;;;;5116296;27;20464;-70
2021/12/21 09:10:51;;;;;;;0.87;0.87;;;2.10;99.90;;;;;;5116196;27;20449;-70
2021/12/21 09:13:38;;;;;;;0.70;0.70;;;2.10;99.90;;;;;;5114936;28;20430;-70
2021/12/21 09:16:27;;;;;;;0.40;0.40;;;2.00;99.90;;;;;;5115911;28;20451;-69
2021/12/21 09:19:14;;;;;;;0.50;0.50;;;2.00;99.90;;;;;;5114694;28;20434;-70
2021/12/21 09:22:01;;;;;;;0.93;0.90;;;2.00;99.90;;;;;;5115670;28;20417;-71
2021/12/21 09:24:48;;;;;;;0.50;0.50;;;2.00;99.90;;;;;;5114926;28;20414;-69
2021/12/21 09:27:35;;;;;;;1.60;0.70;;;2.00;99.90;;;;;;5110812;28;20461;-70
2021/12/21 09:30:23;;;;;;;0.50;0.50;;;1.90;99.90;;;;;;5114553;28;20473;-69
2021/12/21 09:33:11;;;;;;;0.80;0.80;;;1.90;99.90;;;;;;5113523;28;20422;-69
2021/12/21 09:35:58;;;;;;;2.10;2.00;;;1.90;99.90;;;;;;5114747;28;20410;-70
2021/12/21 09:38:45;;;;;;;1.43;1.43;;;1.90;99.90;;;;;;5114509;28;20429;-70
2021/12/21 09:41:32;;;;;;;0.53;0.53;;;2.00;99.90;;;;;;5114929;28;20939;-68
2021/12/21 09:44:19;;;;;;;1.03;0.93;;;2.00;99.90;;;;;;5114687;28;20443;-70
2021/12/21 09:47:09;;;;;;;0.40;0.40;;;2.10;99.90;;;;;;5115811;28;20999;-70
2021/12/21 09:49:57;;;;;;;2.30;2.20;;;2.10;99.90;;;;;;5118255;27;20437;-70
2021/12/21 09:52:45;;;;;;;1.23;1.23;;;2.20;99.90;;;;;;5115428;28;20425;-70
2021/12/21 09:55:32;;;;;;;0.60;0.60;;;2.20;99.90;;;;;;5114895;28;20479;-70
2021/12/21 09:58:20;;;;;;;0.63;0.63;;;2.20;99.90;;;;;;5119738;28;20921;-70
2021/12/21 10:01:06;;;;;;;0.40;0.40;;;2.20;99.90;;;;;;5130605;28;20446;-70
2021/12/21 10:03:53;;;;;;;0.50;0.50;;;2.30;99.90;;;;;;5130615;28;20455;-70
2021/12/21 10:06:48;;;;;;;2.00;1.90;;;2.20;99.90;;;;;;5129796;28;20469;-70
2021/12/21 10:09:37;;;;;;;1.00;1.00;;;2.30;99.90;;;;;;5130805;28;20453;-70
2021/12/21 10:12:28;;;;;;;1.63;0.80;;;2.30;99.90;;;;;;5131657;28;20424;-70
2021/12/21 10:15:19;;;;;;;3.03;2.73;;;2.30;99.90;;;;;;5131561;28;20428;-69
2021/12/21 10:18:05;;;;;;;1.07;1.07;;;2.20;99.90;;;;;;5133745;27;20418;-69
2021/12/21 10:20:53;;;;;;;8.53;7.03;;;2.20;99.90;;;;;;5132771;28;20475;-69
2021/12/21 10:23:44;;;;;;;0.87;0.87;;;2.20;99.90;;;;;;5134284;27;20440;-69
2021/12/21 10:26:30;;;;;;;0.80;0.80;;;2.20;99.90;;;;;;5133251;28;20471;-72
2021/12/21 10:29:17;;;;;;;0.50;0.50;;;2.20;99.90;;;;;;5121389;28;20827;-69
2021/12/21 10:32:05;;;;;;;0.40;0.40;;;2.20;99.90;;;;;;5114160;28;20475;-69
2021/12/21 10:34:54;;;;;;;0.50;0.50;;;2.30;99.90;;;;;;5113775;28;20471;-70
2021/12/21 10:37:42;;;;;;;0.50;0.50;;;2.30;99.90;;;;;;5113375;28;20926;-70
2021/12/21 10:40:30;;;;;;;0.40;0.40;;;2.40;99.90;;;;;;5112516;28;20438;-69
2021/12/21 10:43:17;;;;;;;0.50;0.50;;;2.50;99.90;;;;;;5114321;28;20410;-69
2021/12/21 10:46:05;;;;;;;3.50;1.50;;;2.60;99.90;;;;;;5114207;28;20433;-70
2021/12/21 10:48:52;;;;;;;1.20;1.10;;;2.60;99.90;;;;;;5113391;28;20461;-70
2021/12/21 10:51:52;;;;;;;0.70;0.70;;;2.50;99.90;;;;;;5112605;28;20475;-70
2021/12/21 10:54:41;;;;;;;0.40;0.40;;;2.50;99.90;;;;;;5113778;28;20426;-70
2021/12/21 10:57:32;;;;;;;0.50;0.50;;;2.40;99.90;;;;;;5112216;28;20494;-70
2021/12/21 11:00:18;;;;;;;0.50;0.50;;;2.50;99.90;;;;;;5111358;28;20437;-70
2021/12/21 11:03:05;;;;;;;0.50;0.50;;;2.70;99.90;;;;;;5112529;28;20479;-69
2021/12/21 11:05:53;;;;;;;0.50;0.50;;;2.50;99.90;;;;;;5113673;28;20478;-69
2021/12/21 11:08:40;;;;;;;0.50;0.50;;;2.40;99.90;;;;;;5112385;28;20924;-69
2021/12/21 11:11:32;;;;;;;0.80;0.80;;;2.30;99.90;;;;;;5113375;28;20475;-69
2021/12/21 11:14:20;;;;;;;0.47;0.47;;;2.10;99.90;;;;;;5116044;28;20463;-70
2021/12/21 11:17:07;;;;;;;0.50;0.50;;;2.10;99.90;;;;;;5116613;28;20417;-70
2021/12/21 11:19:54;;;;;;;0.50;0.50;;;2.10;99.90;;;;;;5107984;28;20969;-70
2021/12/21 11:22:43;;;;;;;2.90;2.60;;;2.00;99.90;;;;;;5115589;28;20967;-69
2021/12/21 11:25:32;;;;;;;0.67;0.67;;;2.00;99.90;;;;;;5109861;28;20450;-69
2021/12/21 11:28:22;;;;;;;0.50;0.50;;;2.00;99.90;;;;;;5105212;28;20469;-69
2021/12/21 11:31:11;;;;;;;0.50;0.50;;;1.90;99.90;;;;;;5113918;28;20437;-69
2021/12/21 11:34:00;;;;;;;0.50;0.50;;;2.10;99.90;;;;;;5103368;28;20535;-70
2021/12/21 11:39:53;;;;;;;0.60;0.60;;;2.20;99.90;;;;;;5095228;28;20426;-69
2021/12/21 11:42:46;;;;;;;0.50;0.50;;;2.10;99.90;;;;;;5100572;28;20806;-69
2021/12/21 11:45:37;;;;;;;0.50;0.50;;;2.10;99.90;;;;;;5107181;28;20435;-69
2021/12/21 11:48:33;;;;;;;1.00;1.00;;;2.20;99.90;;;;;;5095090;28;20474;-68
2021/12/21 11:51:27;;;;;;;0.50;0.50;;;2.40;99.90;;;;;;5099795;28;20971;-69
2021/12/21 11:54:19;;;;;;;0.43;0.43;;;2.70;99.90;;;;;;5116473;28;20429;-69
2021/12/21 11:57:06;;;;;;;0.43;0.43;;;2.60;99.90;;;;;;5115718;28;20423;-69
2021/12/21 11:59:53;;;;;;;1.00;0.97;;;2.60;99.90;;;;;;5116175;28;20806;-69
2021/12/21 12:02:40;;;;;;;0.50;0.50;;;2.40;99.90;;;;;;5116435;28;20849;-69
2021/12/21 12:05:31;;;;;;;0.50;0.50;;;2.40;99.90;;;;;;5098625;27;20489;-69
2021/12/21 12:08:18;;;;;;;0.40;0.40;;;2.40;99.90;;;;;;5108194;27;20461;-69
2021/12/21 12:11:05;;;;;;;1.33;1.27;;;2.40;99.90;;;;;;5097077;28;20418;-70
2021/12/21 12:14:04;;;;;;;0.50;0.50;;;2.30;99.90;;;;;;5098963;28;20423;-69
2021/12/21 12:16:54;;;;;;;0.90;0.90;;;2.30;99.90;;;;;;5095246;28;20446;-70
2021/12/21 12:19:43;;;;;;;0.50;0.50;;;2.20;99.90;;;;;;5095622;28;20458;-70
2021/12/21 12:22:36;;;;;;;0.53;0.53;;;2.10;99.90;;;;;;5095128;28;20430;-69
2021/12/21 12:25:26;;;;;;;1.53;1.43;;;1.90;99.90;;;;;;5094757;27;20478;-69
2021/12/21 12:28:22;;;;;;;0.67;0.67;;;1.70;99.90;;;;;;5093945;28;20462;-70
2021/12/21 12:31:09;;;;;;;0.50;0.50;;;1.90;99.90;;;;;;5093457;28;20497;-69
2021/12/21 12:33:56;;;;;;;0.60;0.60;;;1.90;99.90;;;;;;5094410;28;20512;-69
2021/12/21 12:36:50;;;;;;;0.50;0.50;;;1.80;99.90;;;;;;5096456;28;20483;-70
2021/12/21 12:39:42;;;;;;;0.50;0.50;;;1.90;99.90;;;;;;5100579;28;20457;-70
2021/12/21 12:42:32;;;;;;;0.50;0.50;;;1.90;99.90;;;;;;5098626;28;20488;-69
2021/12/21 12:45:21;;;;;;;0.50;0.50;;;2.00;99.90;;;;;;5118539;27;20449;-69
2021/12/21 12:48:22;;;;;;;0.40;0.40;;;2.00;99.90;;;;;;5095124;28;20481;-69
2021/12/21 12:51:23;;;;;;;0.50;0.50;;;2.00;99.90;;;;;;5095109;28;20426;-70
2021/12/21 12:54:15;;;;;;;1.13;1.13;;;2.00;99.90;;;;;;5105042;28;20437;-71
2021/12/21 12:57:03;;;;;;;0.70;0.70;;;2.00;99.90;;;;;;5094144;28;20423;-70
2021/12/21 12:59:53;;;;;;;0.73;0.73;;;2.00;99.90;;;;;;5095712;28;20446;-70
2021/12/21 13:02:55;;;;;;;0.50;0.50;;;2.00;99.90;;;;;;5102764;28;20813;-70
2021/12/21 13:05:52;;;;;;;0.50;0.50;;;2.00;99.90;;;;;;5114148;28;20429;-70
2021/12/21 13:08:40;;;;;;;0.60;0.60;;;2.00;99.90;;;;;;5116804;28;20473;-69
2021/12/21 13:11:29;;;;;;;0.50;0.50;;;1.90;99.90;;;;;;5104804;28;20441;-70
2021/12/21 13:14:18;;;;;;;0.47;0.47;;;1.90;99.90;;;;;;5102357;28;20423;-70
2021/12/21 13:17:05;;;;;;;6.97;1.03;;;1.80;99.90;;;;;;5094362;28;20433;-70
2021/12/21 13:19:52;;;;;;;0.50;0.50;;;1.90;99.90;;;;;;5092321;28;20519;-69
2021/12/21 13:22:39;;;;;;;2.27;2.20;;;1.90;99.90;;;;;;5094238;28;20427;-69
2021/12/21 13:25:26;;;;;;;3.40;2.00;;;1.80;99.90;;;;;;5092838;28;20525;-69
2021/12/21 13:28:14;;;;;;;0.50;0.50;;;1.80;99.90;;;;;;5095377;27;20470;-69
2021/12/21 13:31:06;;;;;;;0.50;0.50;;;1.90;99.90;;;;;;5095581;28;20423;-68
2021/12/21 13:33:56;;;;;;;0.47;0.47;;;1.80;99.90;;;;;;5095270;28;20424;-69
2021/12/21 13:36:45;;;;;;;0.40;0.40;;;1.70;99.90;;;;;;5093757;28;20431;-69
2021/12/21 13:39:35;;;;;;;9.10;1.27;;;1.80;99.90;;;;;;5093330;27;20443;-69
2021/12/21 13:42:24;;;;;;;0.40;0.40;;;1.80;99.90;;;;;;5093095;28;20432;-69
2021/12/21 13:45:11;;;;;;;0.50;0.50;;;1.90;99.90;;;;;;5106695;28;21528;-69
2021/12/21 13:47:59;;;;;;;4.67;4.37;;;1.90;99.90;;;;;;5094476;28;20482;-68
2021/12/21 13:50:46;;;;;;;0.50;0.50;;;1.90;99.90;;;;;;5092832;28;20503;-71
2021/12/21 13:53:41;;;;;;;1.43;1.33;;;1.70;99.90;;;;;;5094226;28;20426;-69
2021/12/21 13:56:30;;;;;;;2.47;1.07;;;1.70;99.90;;;;;;5102594;28;20941;-68
2021/12/21 13:59:18;;;;;;;0.50;0.50;;;1.60;99.90;;;;;;5094447;28;20454;-69
2021/12/21 14:02:07;;;;;;;0.50;0.50;;;1.50;99.90;;;;;;5092663;28;20434;-70
2021/12/21 14:05:03;;;;;;;5.40;1.93;;;1.40;99.90;;;;;;5092498;28;20564;-69
2021/12/21 14:07:51;;;;;;;0.50;0.50;;;1.40;99.90;;;;;;5092529;28;20458;-70
2021/12/21 14:10:42;;;;;;;1.07;1.07;;;1.40;99.90;;;;;;5102579;28;20434;-69
2021/12/21 14:13:31;;;;;;;0.97;0.97;;;1.50;99.90;;;;;;5108026;28;20421;-69
2021/12/21 14:16:19;;;;;;;1.63;0.93;;;1.50;99.90;;;;;;5100214;28;20465;-69
2021/12/21 14:19:07;;;;;;;0.90;0.90;;;1.50;99.90;;;;;;5103922;28;20503;-69
2021/12/21 14:21:56;;;;;;;0.40;0.40;;;1.40;99.90;;;;;;5100759;28;20448;-70
2021/12/21 14:24:43;;;;;;;0.50;0.50;;;1.50;99.90;;;;;;5092145;28;20441;-69
2021/12/21 14:27:30;;;;;;;0.50;0.50;;;1.50;99.90;;;;;;5099827;28;20472;-69
2021/12/21 14:30:17;;;;;;;0.50;0.50;;;1.60;99.90;;;;;;5100345;28;20465;-69
2021/12/21 14:33:09;;;;;;;0.50;0.50;;;1.80;99.90;;;;;;5103657;28;20421;-69
2021/12/21 14:36:00;;;;;;;0.50;0.50;;;1.80;99.90;;;;;;5099226;28;20456;-69
2021/12/21 14:38:54;;;;;;;0.60;0.60;;;1.90;99.90;;;;;;5106129;28;20434;-70
2021/12/21 14:41:45;;;;;;;0.50;0.50;;;2.00;99.90;;;;;;5100282;28;20950;-70
2021/12/21 14:44:41;;;;;;;0.40;0.40;;;2.10;99.90;;;;;;5096365;28;20957;-70
2021/12/21 14:47:30;;;;;;;1.43;1.03;;;2.20;99.90;;;;;;5094309;28;20843;-70
2021/12/21 14:50:20;;;;;;;0.70;0.67;;;2.10;99.90;;;;;;5104229;28;20798;-71
2021/12/21 14:53:16;;;;;;;0.50;0.50;;;1.90;99.90;;;;;;5107693;27;20874;-70
2021/12/21 14:56:04;;;;;;;0.40;0.40;;;1.70;99.90;;;;;;5108760;28;20809;-69
2021/12/21 14:58:57;;;;;;;0.60;0.60;;;1.60;99.90;;;;;;5107373;28;20417;-71
2021/12/21 15:01:53;;;;;;;0.40;0.40;;;1.60;99.90;;;;;;5107215;27;20422;-69
2021/12/21 15:04:42;;;;;;;0.40;0.40;;;1.50;99.90;;;;;;5094990;28;20427;-69
2021/12/21 15:07:29;;;;;;;4.30;1.07;;;1.50;99.90;;;;;;5108456;28;20482;-69
2021/12/21 15:10:21;;;;;;;1.33;1.23;;;1.40;99.90;;;;;;5106463;28;20858;-69
2021/12/21 15:13:10;;;;;;;0.40;0.40;;;1.50;99.90;;;;;;5103370;28;20479;-69
2021/12/21 15:15:57;;;;;;;0.40;0.40;;;1.30;99.90;;;;;;5103650;28;20431;-68
2021/12/21 15:18:44;;;;;;;0.63;0.63;;;1.30;99.90;;;;;;5101719;27;20429;-69
2021/12/21 15:21:31;;;;;;;0.50;0.50;;;1.30;99.90;;;;;;5099097;28;21169;-68
2021/12/21 15:24:18;;;;;;;0.40;0.40;;;1.30;99.90;;;;;;5099186;28;20418;-69